createdAt,value
2023-05-11T00:01:28.004Z,7.80
2023-05-11T00:04:21.101Z,7.70
2023-05-11T00:07:13.708Z,7.80
2023-05-11T00:10:02.298Z,7.90
2023-05-11T00:12:45.153Z,7.90
2023-05-11T00:15:30.844Z,7.70
2023-05-11T00:18:06.176Z,7.90
2023-05-11T00:20:59.155Z,8.30
2023-05-11T00:23:52.614Z,7.90
2023-05-11T00:26:45.515Z,8.10
2023-05-11T00:29:38.634Z,8.40
2023-05-11T00:32:31.517Z,7.80
2023-05-11T00:35:17.901Z,7.90
2023-05-11T00:38:11.003Z,7.60
2023-05-11T00:41:03.839Z,7.30
2023-05-11T00:43:50.272Z,7.80
2023-05-11T00:46:34.516Z,7.20
2023-05-11T00:49:28.715Z,7.50
2023-05-11T00:52:22.944Z,7.70
2023-05-11T00:55:09.445Z,7.20
2023-05-11T00:58:05.938Z,7.70
2023-05-11T01:00:48.875Z,7.30
2023-05-11T01:03:33.665Z,7.70
2023-05-11T01:06:33.294Z,7.70
2023-05-11T01:09:55.151Z,7.50
2023-05-11T01:12:48.334Z,8.20
2023-05-11T01:15:47.689Z,7.90
2023-05-11T01:18:45.628Z,7.90
2023-05-11T01:21:38.827Z,8.50
2023-05-11T01:24:45.970Z,8.40
2023-05-11T01:27:37.830Z,8.50
2023-05-11T01:30:34.210Z,8.00
2023-05-11T01:33:34.319Z,8.90
2023-05-11T01:36:14.280Z,8.60
2023-05-11T01:39:10.156Z,8.40
2023-05-11T01:42:08.848Z,8.60
2023-05-11T01:44:56.975Z,8.20
2023-05-11T01:47:52.170Z,8.60
2023-05-11T01:50:45.745Z,8.20
2023-05-11T01:53:41.169Z,8.50
2023-05-11T01:56:18.533Z,8.30
2023-05-11T01:58:55.575Z,8.80
2023-05-11T02:01:41.065Z,8.70
2023-05-11T02:04:36.549Z,8.80
2023-05-11T02:07:31.015Z,8.10
2023-05-11T02:10:28.431Z,8.50
2023-05-11T02:13:11.928Z,9.00
2023-05-11T02:15:57.818Z,8.90
2023-05-11T02:18:52.679Z,8.40
2023-05-11T02:21:46.715Z,9.00
2023-05-11T02:24:26.259Z,8.20
2023-05-11T02:27:19.362Z,8.50
2023-05-11T02:29:54.258Z,8.50
2023-05-11T02:32:53.045Z,8.70
2023-05-11T02:35:48.177Z,9.30
2023-05-11T02:38:44.309Z,8.80
2023-05-11T02:41:30.389Z,8.50
2023-05-11T02:44:24.715Z,9.00
2023-05-11T02:47:20.055Z,9.00
2023-05-11T02:50:09.963Z,8.50
2023-05-11T02:53:07.745Z,8.30
2023-05-11T02:56:02.101Z,8.60
2023-05-11T02:58:55.185Z,8.80
2023-05-11T03:01:48.735Z,8.60
2023-05-11T03:04:41.823Z,8.60
2023-05-11T03:07:35.320Z,8.90
2023-05-11T03:10:19.725Z,8.90
2023-05-11T03:13:14.479Z,8.40
2023-05-11T03:16:02.497Z,8.80
2023-05-11T03:18:57.603Z,8.40
2023-05-11T03:21:51.442Z,8.70
2023-05-11T03:24:46.064Z,7.90
2023-05-11T03:27:40.404Z,8.40
2023-05-11T03:30:35.496Z,8.50
2023-05-11T03:33:28.554Z,8.40
2023-05-11T03:36:23.999Z,8.50
2023-05-11T03:39:18.493Z,8.00
2023-05-11T03:42:13.972Z,8.80
2023-05-11T03:45:10.355Z,8.60
2023-05-11T03:48:05.441Z,8.40
2023-05-11T03:50:58.684Z,7.30
2023-05-11T03:53:34.802Z,7.40
2023-05-11T03:56:12.886Z,7.70
2023-05-11T03:59:05.568Z,7.10
2023-05-11T04:02:01.565Z,7.10
2023-05-11T04:04:34.916Z,7.40
2023-05-11T04:07:20.976Z,7.30
2023-05-11T04:10:14.868Z,7.40
2023-05-11T04:12:57.709Z,7.40
2023-05-11T04:15:54.387Z,7.20
2023-05-11T04:18:47.509Z,7.00
2023-05-11T04:21:41.346Z,7.10
2023-05-11T04:24:34.656Z,7.20
2023-05-11T04:27:17.712Z,7.00
2023-05-11T04:30:00.882Z,6.30
2023-05-11T04:32:37.750Z,6.60
2023-05-11T04:35:32.441Z,7.00
2023-05-11T04:38:06.413Z,7.20
2023-05-11T04:40:58.990Z,6.40
2023-05-11T04:43:52.345Z,6.40
2023-05-11T04:46:44.954Z,6.30
2023-05-11T04:49:39.725Z,6.20
2023-05-11T04:52:32.578Z,6.20
2023-05-11T04:55:25.700Z,6.10
2023-05-11T04:57:59.553Z,6.30
2023-05-11T05:00:52.866Z,6.60
2023-05-11T05:03:45.930Z,6.10
2023-05-11T05:06:38.716Z,6.70
2023-05-11T05:09:24.211Z,6.80
2023-05-11T05:11:57.350Z,6.40
2023-05-11T05:14:51.957Z,6.00
2023-05-11T05:17:34.897Z,6.10
2023-05-11T05:20:27.801Z,5.70
2023-05-11T05:23:19.282Z,5.80
2023-05-11T05:25:55.290Z,5.90
2023-05-11T05:28:49.047Z,5.70
2023-05-11T05:31:33.227Z,6.10
2023-05-11T05:34:26.389Z,6.30
2023-05-11T05:37:12.628Z,5.70
2023-05-11T05:39:59.329Z,5.60
2023-05-11T05:42:45.676Z,5.60
2023-05-11T05:45:23.395Z,6.10
2023-05-11T05:48:15.688Z,6.00
2023-05-11T05:51:00.383Z,5.50
2023-05-11T05:53:52.721Z,5.80
2023-05-11T05:56:46.015Z,5.70
2023-05-11T05:59:39.830Z,5.20
2023-05-11T06:02:33.389Z,6.40
2023-05-11T06:05:26.573Z,5.30
2023-05-11T06:08:22.589Z,6.10
2023-05-11T06:11:16.076Z,5.80
2023-05-11T06:14:09.948Z,6.30
2023-05-11T06:17:02.814Z,6.40
2023-05-11T06:19:59.385Z,6.00
2023-05-11T06:22:52.206Z,6.00
2023-05-11T06:25:46.425Z,5.80
2023-05-11T06:28:39.009Z,6.00
2023-05-11T06:31:27.358Z,5.90
2023-05-11T06:34:02.522Z,5.90
2023-05-11T06:36:35.929Z,6.50
2023-05-11T06:39:28.934Z,7.30
2023-05-11T06:42:12.806Z,5.90
2023-05-11T06:45:06.857Z,5.50
2023-05-11T06:47:59.610Z,5.40
2023-05-11T06:50:52.437Z,5.70
2023-05-11T06:53:30.261Z,5.40
2023-05-11T06:56:08.325Z,6.40
2023-05-11T06:58:40.875Z,6.10
2023-05-11T07:01:33.815Z,5.90
2023-05-11T07:04:09.842Z,6.20
2023-05-11T07:06:49.951Z,5.50
2023-05-11T07:09:32.486Z,6.20
2023-05-11T07:12:25.487Z,5.80
2023-05-11T07:15:18.504Z,6.60
2023-05-11T07:18:05.540Z,5.80
2023-05-11T07:20:41.555Z,5.40
2023-05-11T07:23:36.372Z,6.10
2023-05-11T07:26:19.138Z,6.00
2023-05-11T07:28:51.497Z,5.90
2023-05-11T07:31:44.218Z,5.80
2023-05-11T07:34:30.050Z,5.80
2023-05-11T07:37:22.655Z,5.50
2023-05-11T07:40:16.046Z,5.50
2023-05-11T07:43:03.297Z,5.70
2023-05-11T07:45:38.362Z,5.70
2023-05-11T07:48:31.072Z,6.10
2023-05-11T07:51:24.789Z,6.40
2023-05-11T07:54:08.522Z,6.40
2023-05-11T07:57:01.204Z,6.10
2023-05-11T07:59:37.106Z,6.20
2023-05-11T08:02:13.144Z,5.10
2023-05-11T08:04:51.141Z,6.10
2023-05-11T08:07:37.048Z,6.00
2023-05-11T08:10:21.406Z,6.20
2023-05-11T08:12:57.195Z,6.50
2023-05-11T08:15:32.737Z,5.80
2023-05-11T08:18:08.696Z,5.80
2023-05-11T08:20:44.072Z,6.10
2023-05-11T08:23:27.227Z,5.40
2023-05-11T08:26:13.888Z,5.30
2023-05-11T08:29:07.235Z,5.20
2023-05-11T08:31:49.076Z,5.60
2023-05-11T08:34:22.525Z,5.00
2023-05-11T08:37:05.320Z,5.80
2023-05-11T08:39:45.900Z,5.30
2023-05-11T08:42:30.779Z,5.50
2023-05-11T08:45:24.114Z,5.40
2023-05-11T08:48:08.074Z,5.40
2023-05-11T08:50:43.977Z,4.80
2023-05-11T08:53:17.234Z,5.40
2023-05-11T08:55:51.634Z,5.30
2023-05-11T08:58:24.871Z,5.50
2023-05-11T09:01:02.303Z,5.20
2023-05-11T09:03:38.383Z,4.80
2023-05-11T09:06:32.193Z,4.40
2023-05-11T09:09:25.038Z,4.70
2023-05-11T09:12:21.377Z,4.50
2023-05-11T09:15:06.863Z,4.50
2023-05-11T09:17:49.824Z,4.30
2023-05-11T09:20:46.326Z,4.40
2023-05-11T09:23:40.265Z,4.00
2023-05-11T09:26:21.649Z,3.70
2023-05-11T09:29:04.705Z,3.60
2023-05-11T09:31:57.249Z,3.50
2023-05-11T09:34:43.124Z,3.80
2023-05-11T09:37:36.366Z,4.20
2023-05-11T09:40:34.083Z,3.90
2023-05-11T09:43:29.451Z,3.70
2023-05-11T09:46:25.611Z,4.20
2023-05-11T09:49:18.770Z,4.10
2023-05-11T09:52:12.664Z,3.80
2023-05-11T09:55:12.991Z,4.40
2023-05-11T09:58:06.589Z,4.00
2023-05-11T10:00:59.513Z,3.80
2023-05-11T10:04:00.370Z,3.50
2023-05-11T10:06:50.781Z,3.30
2023-05-11T10:09:44.096Z,3.50
2023-05-11T10:12:50.627Z,3.10
2023-05-11T10:15:45.289Z,3.50
2023-05-11T10:18:40.533Z,3.40
2023-05-11T10:21:35.256Z,3.20
2023-05-11T10:24:28.537Z,3.60
2023-05-11T10:27:22.435Z,3.30
2023-05-11T10:30:17.114Z,3.30
2023-05-11T10:33:11.156Z,3.30
2023-05-11T10:36:04.061Z,2.80
2023-05-11T10:38:57.289Z,3.20
2023-05-11T10:42:24.865Z,3.30
2023-05-11T10:45:24.417Z,2.90
2023-05-11T10:48:42.330Z,3.10
2023-05-11T10:52:01.964Z,3.30
2023-05-11T10:55:08.794Z,2.60
2023-05-11T10:58:18.149Z,3.30
2023-05-11T11:01:33.280Z,2.40
2023-05-11T11:04:28.129Z,2.50
2023-05-11T11:07:22.145Z,2.40
2023-05-11T11:10:33.718Z,2.90
2023-05-11T11:13:26.644Z,2.80
2023-05-11T11:16:22.169Z,2.60
2023-05-11T11:19:38.835Z,2.50
2023-05-11T11:22:48.471Z,2.40
2023-05-11T11:25:57.350Z,2.60
2023-05-11T11:29:10.790Z,2.20
2023-05-11T11:32:29.741Z,2.20
2023-05-11T11:35:46.278Z,2.30
2023-05-11T11:39:01.395Z,2.80
2023-05-11T11:42:06.593Z,2.30
2023-05-11T11:45:31.135Z,2.50
2023-05-11T11:48:33.881Z,2.70
2023-05-11T11:51:37.466Z,2.30
2023-05-11T11:54:41.284Z,2.70
2023-05-11T11:57:51.406Z,2.40
2023-05-11T12:00:36.153Z,2.60
2023-05-11T12:03:29.396Z,2.50
2023-05-11T12:06:12.989Z,2.40
2023-05-11T12:08:55.324Z,2.70
2023-05-11T12:11:39.000Z,2.30
2023-05-11T12:14:33.837Z,2.40
2023-05-11T12:17:30.968Z,2.60
2023-05-11T12:20:25.669Z,2.40
2023-05-11T12:23:12.512Z,2.40
2023-05-11T12:26:08.067Z,2.50
2023-05-11T12:29:12.770Z,2.30
2023-05-11T12:32:12.692Z,2.40
2023-05-11T12:35:06.869Z,2.50
2023-05-11T12:38:02.384Z,2.50
2023-05-11T12:40:56.301Z,2.70
2023-05-11T12:43:33.896Z,2.60
2023-05-11T12:46:26.797Z,2.60
2023-05-11T12:49:25.369Z,2.50
2023-05-11T12:52:09.268Z,2.50
2023-05-11T12:54:52.573Z,2.40
2023-05-11T12:57:33.646Z,2.30
2023-05-11T13:00:21.844Z,2.60
2023-05-11T13:03:16.490Z,2.40
2023-05-11T13:06:08.058Z,2.60
2023-05-11T13:08:51.052Z,3.00
2023-05-11T13:11:28.722Z,2.70
2023-05-11T13:14:22.068Z,2.60
2023-05-11T13:17:07.749Z,2.50
2023-05-11T13:19:49.666Z,2.70
2023-05-11T13:22:25.019Z,2.20
2023-05-11T13:25:09.964Z,2.50
2023-05-11T13:28:02.790Z,2.50
2023-05-11T13:30:44.775Z,2.50
2023-05-11T13:33:37.901Z,2.50
2023-05-11T13:36:33.933Z,2.60
2023-05-11T13:39:19.534Z,3.00
2023-05-11T13:42:06.436Z,2.70
2023-05-11T13:44:48.307Z,2.50
2023-05-11T13:47:42.560Z,2.70
2023-05-11T13:50:20.276Z,2.80
2023-05-11T13:53:13.782Z,2.70
2023-05-11T13:55:59.460Z,2.30
2023-05-11T13:58:43.051Z,2.70
2023-05-11T14:01:29.650Z,2.70
2023-05-11T14:04:22.653Z,2.70
2023-05-11T14:07:08.835Z,2.40
2023-05-11T14:10:01.826Z,3.20
2023-05-11T14:12:54.562Z,2.50
2023-05-11T14:15:47.142Z,2.50
2023-05-11T14:18:24.949Z,2.70
2023-05-11T14:21:02.759Z,2.40
2023-05-11T14:24:10.470Z,2.10
2023-05-11T14:26:47.892Z,2.50
2023-05-11T14:29:31.120Z,2.50
2023-05-11T14:32:07.000Z,2.60
2023-05-11T14:34:45.346Z,2.50
2023-05-11T14:37:25.912Z,2.30
2023-05-11T14:40:01.034Z,2.60
2023-05-11T14:42:33.925Z,2.40
2023-05-11T14:45:08.142Z,2.50
2023-05-11T14:47:44.362Z,2.60
2023-05-11T14:50:17.231Z,2.30
2023-05-11T14:52:49.967Z,2.50
2023-05-11T14:55:23.078Z,2.30
2023-05-11T14:57:57.548Z,2.30
2023-05-11T15:00:32.987Z,2.40
2023-05-11T15:03:05.732Z,2.20
2023-05-11T15:05:38.493Z,2.30
2023-05-11T15:08:28.500Z,2.50
2023-05-11T15:11:02.636Z,2.40
2023-05-11T15:13:35.346Z,2.70
2023-05-11T15:16:08.444Z,2.30
2023-05-11T15:18:42.825Z,2.40
2023-05-11T15:21:16.940Z,2.60
2023-05-11T15:23:49.995Z,2.60
2023-05-11T15:26:32.363Z,2.70
2023-05-11T15:29:05.064Z,2.60
2023-05-11T15:31:38.690Z,2.50
2023-05-11T15:34:12.115Z,2.60
2023-05-11T15:36:50.008Z,2.60
2023-05-11T15:39:33.799Z,2.70
2023-05-11T15:42:26.787Z,2.50
2023-05-11T15:45:03.045Z,3.20
2023-05-11T15:47:43.624Z,4.60
2023-05-11T15:50:17.586Z,3.00
2023-05-11T15:53:02.139Z,2.70
2023-05-11T15:55:46.433Z,2.80
2023-05-11T15:58:29.801Z,2.50
2023-05-11T16:01:06.125Z,2.70
2023-05-11T16:03:42.353Z,2.80
2023-05-11T16:06:25.099Z,3.00
2023-05-11T16:09:18.379Z,2.60
2023-05-11T16:11:54.395Z,2.40
2023-05-11T16:14:47.372Z,3.20
2023-05-11T16:17:34.130Z,3.00
2023-05-11T16:20:28.735Z,2.60
2023-05-11T16:23:04.444Z,3.00
2023-05-11T16:25:57.908Z,2.90
2023-05-11T16:28:34.443Z,2.80
2023-05-11T16:31:27.632Z,2.60
2023-05-11T16:34:11.743Z,2.50
2023-05-11T16:37:04.781Z,3.30
2023-05-11T16:39:58.497Z,3.00
2023-05-11T16:42:51.379Z,2.90
2023-05-11T16:45:34.043Z,2.90
2023-05-11T16:48:09.543Z,2.80
2023-05-11T16:50:45.063Z,2.80
2023-05-11T16:53:30.666Z,2.90
2023-05-11T16:56:10.521Z,3.20
2023-05-11T16:58:53.511Z,3.00
2023-05-11T17:01:36.643Z,3.00
2023-05-11T17:04:09.534Z,2.60
2023-05-11T17:06:52.406Z,2.70
2023-05-11T17:09:25.166Z,3.40
2023-05-11T17:12:00.930Z,3.50
2023-05-11T17:14:39.791Z,3.30
2023-05-11T17:17:14.711Z,3.20
2023-05-11T17:19:50.008Z,4.10
2023-05-11T17:22:22.904Z,3.70
2023-05-11T17:24:55.495Z,3.30
2023-05-11T17:27:48.593Z,3.20
2023-05-11T17:30:32.875Z,3.50
2023-05-11T17:33:13.381Z,3.70
2023-05-11T17:35:50.817Z,3.50
2023-05-11T17:40:58.533Z,3.60
2023-05-11T17:43:42.947Z,3.80
2023-05-11T17:46:16.254Z,4.30
2023-05-11T17:48:49.204Z,4.40
2023-05-11T17:51:25.194Z,3.90
2023-05-11T17:54:17.831Z,3.60
2023-05-11T17:56:50.696Z,3.90
2023-05-11T17:59:34.974Z,3.70
2023-05-11T18:02:28.107Z,4.10
2023-05-11T18:05:12.581Z,3.70
2023-05-11T18:07:55.620Z,3.70
2023-05-11T18:10:38.291Z,4.20
2023-05-11T18:13:31.461Z,4.80
2023-05-11T18:16:08.416Z,4.90
2023-05-11T18:18:51.994Z,4.60
2023-05-11T18:21:28.270Z,5.00
2023-05-11T18:24:20.760Z,4.30
2023-05-11T18:26:53.389Z,4.70
2023-05-11T18:29:46.333Z,4.50
2023-05-11T18:32:20.624Z,4.10
2023-05-11T18:34:53.664Z,4.70
2023-05-11T18:37:37.216Z,4.90
2023-05-11T18:40:30.204Z,5.10
2023-05-11T18:43:23.092Z,5.00
2023-05-11T18:46:16.123Z,5.20
2023-05-11T18:49:09.010Z,5.70
2023-05-11T18:52:04.132Z,6.60
2023-05-11T18:54:56.927Z,6.30
2023-05-11T18:57:50.624Z,6.30
2023-05-11T19:00:23.498Z,6.50
2023-05-11T19:02:58.277Z,6.80
2023-05-11T19:05:31.240Z,6.60
2023-05-11T19:08:24.003Z,8.20
2023-05-11T19:11:11.329Z,7.60
2023-05-11T19:13:54.379Z,8.30
2023-05-11T19:16:28.393Z,8.70
2023-05-11T19:19:21.404Z,8.10
2023-05-11T19:21:56.559Z,7.70
2023-05-11T19:24:29.471Z,7.70
2023-05-11T19:27:22.307Z,7.50
2023-05-11T19:30:17.066Z,7.50
2023-05-11T19:33:11.094Z,8.30
2023-05-11T19:35:45.312Z,6.90
2023-05-11T19:38:28.031Z,8.20
2023-05-11T19:41:00.740Z,7.20
2023-05-11T19:43:34.292Z,8.10
2023-05-11T19:46:17.848Z,8.40
2023-05-11T19:49:04.215Z,8.30
2023-05-11T19:51:47.085Z,8.30
2023-05-11T19:54:39.543Z,8.50
2023-05-11T19:57:37.168Z,7.90
2023-05-11T20:00:30.250Z,8.70
2023-05-11T20:03:03.567Z,9.50
2023-05-11T20:05:45.633Z,10.20
2023-05-11T20:08:38.580Z,10.30
2023-05-11T20:11:32.066Z,8.90
2023-05-11T20:14:14.809Z,9.10
2023-05-11T20:17:09.704Z,8.80
2023-05-11T20:20:03.002Z,9.10
2023-05-11T20:22:55.715Z,9.50
2023-05-11T20:25:48.425Z,10.10
2023-05-11T20:28:41.338Z,11.90
2023-05-11T20:31:24.070Z,10.40
2023-05-11T20:34:16.785Z,10.90
2023-05-11T20:37:11.030Z,9.60
2023-05-11T20:40:04.833Z,12.20
2023-05-11T20:42:58.722Z,11.10
2023-05-11T20:45:51.956Z,9.30
2023-05-11T20:48:49.493Z,8.30
2023-05-11T20:51:45.088Z,8.90
2023-05-11T20:54:29.363Z,9.30
2023-05-11T20:57:22.516Z,8.90
2023-05-11T21:02:53.800Z,9.10
2023-05-11T21:05:26.528Z,8.50
2023-05-11T21:08:19.563Z,8.20
2023-05-11T21:11:12.765Z,7.70
2023-05-11T21:14:05.539Z,6.80
2023-05-11T21:16:58.305Z,8.20
2023-05-11T21:19:52.479Z,7.70
2023-05-11T21:22:45.661Z,7.50
2023-05-11T21:25:39.355Z,7.80
2023-05-11T21:28:34.738Z,7.30
2023-05-11T21:31:27.808Z,7.90
2023-05-11T21:34:20.846Z,7.40
2023-05-11T21:37:16.004Z,7.90
2023-05-11T21:40:11.894Z,7.20
2023-05-11T21:43:08.239Z,7.30
2023-05-11T21:46:02.248Z,7.10
2023-05-11T21:48:56.586Z,7.00
2023-05-11T21:51:50.231Z,7.20
2023-05-11T21:54:43.072Z,7.10
2023-05-11T21:57:35.750Z,6.50
2023-05-11T22:00:23.351Z,7.20
2023-05-11T22:03:16.299Z,7.70
2023-05-11T22:06:09.677Z,7.60
2023-05-11T22:08:56.513Z,7.10
2023-05-11T22:11:49.420Z,7.40
2023-05-11T22:14:42.677Z,7.30
2023-05-11T22:17:35.960Z,6.90
2023-05-11T22:20:28.955Z,7.80
2023-05-11T22:23:21.135Z,7.30
2023-05-11T22:26:12.601Z,7.40
2023-05-11T22:29:05.917Z,7.30
2023-05-11T22:31:58.881Z,7.50
2023-05-11T22:35:11.873Z,7.70
2023-05-11T22:38:05.547Z,6.90
2023-05-11T22:40:58.161Z,7.30
2023-05-11T22:43:52.781Z,7.50
2023-05-11T22:46:45.396Z,6.80
2023-05-11T22:49:36.960Z,6.70
2023-05-11T22:52:29.566Z,6.70
2023-05-11T22:55:23.326Z,7.10
2023-05-11T22:58:15.853Z,6.90
2023-05-11T23:01:08.787Z,7.50
2023-05-11T23:04:01.508Z,7.10
2023-05-11T23:06:54.748Z,7.30
2023-05-11T23:09:39.735Z,7.70
2023-05-11T23:12:33.059Z,7.20
2023-05-11T23:15:25.531Z,7.40
2023-05-11T23:18:18.882Z,7.70
2023-05-11T23:21:12.500Z,7.40
2023-05-11T23:23:55.350Z,7.50
2023-05-11T23:26:48.246Z,6.90
2023-05-11T23:29:40.976Z,7.90
2023-05-11T23:32:33.932Z,7.30
2023-05-11T23:35:27.086Z,6.90
2023-05-11T23:38:19.898Z,7.20
2023-05-11T23:41:12.672Z,7.20
2023-05-11T23:44:05.074Z,7.50
2023-05-11T23:46:51.391Z,7.00
2023-05-11T23:49:44.364Z,7.30
2023-05-11T23:52:37.418Z,6.80
2023-05-11T23:55:30.512Z,6.80
2023-05-11T23:58:23.194Z,6.30
